Coaling, Alabama
Current Conditions -  °F | °C
As of 4:53 AM on Wednesday 22 Oct 2014 (Local Time) from KTCL Reporting Station
Clear Clear  
Wind Chill: 52°   Ceiling: Unl
Heat Index: 52°   Visibility: 10mi
Dew Point: 48°   Wind: 7mph
Humidity: 86%   Direction: 10°N
Pressure: 30.1"   Gusts: NA
Location:  33.16°N, 87.34°W
Report Text: KTCL 220953Z AUTO 01006KT 10SM CLR 11/09 A3010 RMK AO2 SLP190 T01110089
Loading
Personal Weather Stations






























Interactive Weather Map
Tropical Storm Tracking
New forecast layout! Learn more

10-Day Weather Forecast

Advertisements
Track Severe Weather on mobile